sensor_id;sensor_type;location;lat;lon;timestamp;temperature;humidity
9006;DHT22;62284;50.702;7.140;2022-08-19T00:01:36;20.60;96.50
9006;DHT22;62284;50.702;7.140;2022-08-19T00:04:06;20.40;96.60
9006;DHT22;62284;50.702;7.140;2022-08-19T00:06:34;20.30;97.10
9006;DHT22;62284;50.702;7.140;2022-08-19T00:09:06;20.30;97.10
9006;DHT22;62284;50.702;7.140;2022-08-19T00:11:35;20.40;97.10
9006;DHT22;62284;50.702;7.140;2022-08-19T00:14:04;20.40;97.00
9006;DHT22;62284;50.702;7.140;2022-08-19T00:16:32;20.40;97.20
9006;DHT22;62284;50.702;7.140;2022-08-19T00:18:59;20.40;97.20
9006;DHT22;62284;50.702;7.140;2022-08-19T00:21:26;20.40;97.30
9006;DHT22;62284;50.702;7.140;2022-08-19T00:23:54;20.40;97.30
9006;DHT22;62284;50.702;7.140;2022-08-19T00:26:24;20.40;97.30
9006;DHT22;62284;50.702;7.140;2022-08-19T00:28:52;20.20;97.40
9006;DHT22;62284;50.702;7.140;2022-08-19T00:31:19;20.30;97.50
9006;DHT22;62284;50.702;7.140;2022-08-19T00:33:46;20.20;97.70
9006;DHT22;62284;50.702;7.140;2022-08-19T00:36:14;20.20;97.70
9006;DHT22;62284;50.702;7.140;2022-08-19T00:38:41;20.20;97.70
9006;DHT22;62284;50.702;7.140;2022-08-19T00:41:09;20.10;97.70
9006;DHT22;62284;50.702;7.140;2022-08-19T00:43:36;20.20;97.80
9006;DHT22;62284;50.702;7.140;2022-08-19T00:46:05;20.20;97.60
9006;DHT22;62284;50.702;7.140;2022-08-19T00:48:33;20.20;97.80
9006;DHT22;62284;50.702;7.140;2022-08-19T00:51:02;20.20;97.70
9006;DHT22;62284;50.702;7.140;2022-08-19T00:53:31;20.20;97.60
9006;DHT22;62284;50.702;7.140;2022-08-19T00:56:01;20.30;97.40
9006;DHT22;62284;50.702;7.140;2022-08-19T00:58:33;20.40;97.20
9006;DHT22;62284;50.702;7.140;2022-08-19T01:01:01;20.40;97.10
9006;DHT22;62284;50.702;7.140;2022-08-19T01:03:30;20.30;97.30
9006;DHT22;62284;50.702;7.140;2022-08-19T01:05:56;20.20;97.50
9006;DHT22;62284;50.702;7.140;2022-08-19T01:08:23;20.10;97.70
9006;DHT22;62284;50.702;7.140;2022-08-19T01:10:53;20.00;97.90
9006;DHT22;62284;50.702;7.140;2022-08-19T01:13:23;19.90;98.00
9006;DHT22;62284;50.702;7.140;2022-08-19T01:15:53;20.00;98.00
9006;DHT22;62284;50.702;7.140;2022-08-19T01:18:22;19.90;98.20
9006;DHT22;62284;50.702;7.140;2022-08-19T01:20:52;19.80;98.40
9006;DHT22;62284;50.702;7.140;2022-08-19T01:23:22;19.80;98.50
9006;DHT22;62284;50.702;7.140;2022-08-19T01:26:09;19.80;98.60
9006;DHT22;62284;50.702;7.140;2022-08-19T01:28:36;19.60;98.80
9006;DHT22;62284;50.702;7.140;2022-08-19T01:31:04;19.60;98.90
9006;DHT22;62284;50.702;7.140;2022-08-19T01:33:31;19.60;98.80
9006;DHT22;62284;50.702;7.140;2022-08-19T01:36:04;19.60;98.80
9006;DHT22;62284;50.702;7.140;2022-08-19T01:38:36;19.70;98.80
9006;DHT22;62284;50.702;7.140;2022-08-19T01:41:04;19.70;98.70
9006;DHT22;62284;50.702;7.140;2022-08-19T01:43:31;19.70;98.80
9006;DHT22;62284;50.702;7.140;2022-08-19T01:45:58;19.60;98.90
9006;DHT22;62284;50.702;7.140;2022-08-19T01:48:26;19.60;99.10
9006;DHT22;62284;50.702;7.140;2022-08-19T01:50:54;19.60;99.00
9006;DHT22;62284;50.702;7.140;2022-08-19T01:53:21;19.70;99.10
9006;DHT22;62284;50.702;7.140;2022-08-19T01:55:49;19.70;98.90
9006;DHT22;62284;50.702;7.140;2022-08-19T01:58:19;19.70;98.80
9006;DHT22;62284;50.702;7.140;2022-08-19T02:00:47;19.70;99.00
9006;DHT22;62284;50.702;7.140;2022-08-19T02:03:15;19.60;99.20
9006;DHT22;62284;50.702;7.140;2022-08-19T02:05:43;19.60;99.40
9006;DHT22;62284;50.702;7.140;2022-08-19T02:08:11;19.60;99.10
9006;DHT22;62284;50.702;7.140;2022-08-19T02:10:39;19.70;99.00
9006;DHT22;62284;50.702;7.140;2022-08-19T02:13:09;19.70;99.10
9006;DHT22;62284;50.702;7.140;2022-08-19T02:15:36;19.70;99.10
9006;DHT22;62284;50.702;7.140;2022-08-19T02:18:03;19.70;99.40
9006;DHT22;62284;50.702;7.140;2022-08-19T02:20:30;19.70;99.10
9006;DHT22;62284;50.702;7.140;2022-08-19T02:22:57;19.60;99.10
9006;DHT22;62284;50.702;7.140;2022-08-19T02:25:26;19.70;99.10
9006;DHT22;62284;50.702;7.140;2022-08-19T02:27:53;19.70;99.10
9006;DHT22;62284;50.702;7.140;2022-08-19T02:30:22;19.50;99.30
9006;DHT22;62284;50.702;7.140;2022-08-19T02:32:50;19.60;99.40
9006;DHT22;62284;50.702;7.140;2022-08-19T02:35:17;19.70;99.20
9006;DHT22;62284;50.702;7.140;2022-08-19T02:37:45;19.70;99.00
9006;DHT22;62284;50.702;7.140;2022-08-19T02:40:49;19.80;99.00
9006;DHT22;62284;50.702;7.140;2022-08-19T02:43:17;19.60;99.30
9006;DHT22;62284;50.702;7.140;2022-08-19T02:45:47;19.60;99.20
9006;DHT22;62284;50.702;7.140;2022-08-19T02:48:15;19.60;99.30
9006;DHT22;62284;50.702;7.140;2022-08-19T02:50:42;19.60;99.40
9006;DHT22;62284;50.702;7.140;2022-08-19T02:53:10;19.60;99.30
9006;DHT22;62284;50.702;7.140;2022-08-19T02:55:43;19.50;99.40
9006;DHT22;62284;50.702;7.140;2022-08-19T02:58:11;19.50;99.40
9006;DHT22;62284;50.702;7.140;2022-08-19T03:00:42;19.50;99.50
9006;DHT22;62284;50.702;7.140;2022-08-19T03:03:11;19.50;99.60
9006;DHT22;62284;50.702;7.140;2022-08-19T03:05:39;19.40;99.70
9006;DHT22;62284;50.702;7.140;2022-08-19T03:08:06;19.40;99.90
9006;DHT22;62284;50.702;7.140;2022-08-19T03:10:40;19.30;99.90
9006;DHT22;62284;50.702;7.140;2022-08-19T03:13:11;19.40;99.90
9006;DHT22;62284;50.702;7.140;2022-08-19T03:15:40;19.30;99.90
9006;DHT22;62284;50.702;7.140;2022-08-19T03:18:08;19.40;99.90
9006;DHT22;62284;50.702;7.140;2022-08-19T03:20:42;19.50;99.80
9006;DHT22;62284;50.702;7.140;2022-08-19T03:23:09;19.40;99.90
9006;DHT22;62284;50.702;7.140;2022-08-19T03:25:39;19.40;99.90
9006;DHT22;62284;50.702;7.140;2022-08-19T03:28:06;19.40;99.90
9006;DHT22;62284;50.702;7.140;2022-08-19T03:30:33;19.40;99.90
9006;DHT22;62284;50.702;7.140;2022-08-19T03:33:00;19.30;99.90
9006;DHT22;62284;50.702;7.140;2022-08-19T03:35:28;19.20;99.90
9006;DHT22;62284;50.702;7.140;2022-08-19T03:37:58;19.20;99.90
9006;DHT22;62284;50.702;7.140;2022-08-19T03:40:26;19.20;99.90
9006;DHT22;62284;50.702;7.140;2022-08-19T03:42:55;19.20;99.90
9006;DHT22;62284;50.702;7.140;2022-08-19T03:45:22;19.20;99.90
9006;DHT22;62284;50.702;7.140;2022-08-19T03:47:49;19.10;99.90
9006;DHT22;62284;50.702;7.140;2022-08-19T03:50:16;19.00;99.90
9006;DHT22;62284;50.702;7.140;2022-08-19T03:52:48;19.00;99.90
9006;DHT22;62284;50.702;7.140;2022-08-19T03:55:17;19.00;99.90
9006;DHT22;62284;50.702;7.140;2022-08-19T03:57:44;19.00;99.90
9006;DHT22;62284;50.702;7.140;2022-08-19T04:00:14;19.00;99.90
9006;DHT22;62284;50.702;7.140;2022-08-19T04:02:41;19.00;99.90
9006;DHT22;62284;50.702;7.140;2022-08-19T04:05:09;18.90;99.90
9006;DHT22;62284;50.702;7.140;2022-08-19T04:07:36;19.00;99.90
9006;DHT22;62284;50.702;7.140;2022-08-19T04:10:04;19.00;99.90
9006;DHT22;62284;50.702;7.140;2022-08-19T04:12:32;19.00;99.90
9006;DHT22;62284;50.702;7.140;2022-08-19T04:14:59;18.90;99.90
9006;DHT22;62284;50.702;7.140;2022-08-19T04:17:26;18.90;99.90
9006;DHT22;62284;50.702;7.140;2022-08-19T04:19:53;18.80;99.90
9006;DHT22;62284;50.702;7.140;2022-08-19T04:22:20;18.70;99.90
9006;DHT22;62284;50.702;7.140;2022-08-19T04:24:46;18.70;99.90
9006;DHT22;62284;50.702;7.140;2022-08-19T04:27:14;18.70;99.90
9006;DHT22;62284;50.702;7.140;2022-08-19T04:29:43;18.60;99.90
9006;DHT22;62284;50.702;7.140;2022-08-19T04:32:10;18.60;99.90
9006;DHT22;62284;50.702;7.140;2022-08-19T04:34:37;18.60;99.90
9006;DHT22;62284;50.702;7.140;2022-08-19T04:37:05;18.60;99.90
9006;DHT22;62284;50.702;7.140;2022-08-19T04:39:38;18.60;99.90
9006;DHT22;62284;50.702;7.140;2022-08-19T04:42:22;18.60;99.90
9006;DHT22;62284;50.702;7.140;2022-08-19T04:45:12;18.60;99.90
9006;DHT22;62284;50.702;7.140;2022-08-19T04:47:41;18.70;99.90
9006;DHT22;62284;50.702;7.140;2022-08-19T04:50:09;18.80;99.90
9006;DHT22;62284;50.702;7.140;2022-08-19T04:52:37;18.80;99.90
9006;DHT22;62284;50.702;7.140;2022-08-19T04:55:05;18.90;99.90
9006;DHT22;62284;50.702;7.140;2022-08-19T04:57:32;18.90;99.90
9006;DHT22;62284;50.702;7.140;2022-08-19T04:59:59;18.90;99.90
9006;DHT22;62284;50.702;7.140;2022-08-19T05:02:27;18.90;99.90
9006;DHT22;62284;50.702;7.140;2022-08-19T05:04:57;18.90;99.90
9006;DHT22;62284;50.702;7.140;2022-08-19T05:07:26;18.90;99.90
9006;DHT22;62284;50.702;7.140;2022-08-19T05:09:53;19.00;99.90
9006;DHT22;62284;50.702;7.140;2022-08-19T05:12:20;18.90;99.90
9006;DHT22;62284;50.702;7.140;2022-08-19T05:14:47;18.90;99.90
9006;DHT22;62284;50.702;7.140;2022-08-19T05:17:15;19.00;99.90
9006;DHT22;62284;50.702;7.140;2022-08-19T05:19:43;19.00;99.90
9006;DHT22;62284;50.702;7.140;2022-08-19T05:22:27;19.00;99.90
9006;DHT22;62284;50.702;7.140;2022-08-19T05:25:04;19.00;99.90
9006;DHT22;62284;50.702;7.140;2022-08-19T05:27:31;19.00;99.90
9006;DHT22;62284;50.702;7.140;2022-08-19T05:29:59;19.00;99.90
9006;DHT22;62284;50.702;7.140;2022-08-19T05:32:27;19.10;99.90
9006;DHT22;62284;50.702;7.140;2022-08-19T05:34:55;19.30;99.90
9006;DHT22;62284;50.702;7.140;2022-08-19T05:37:22;19.40;99.90
9006;DHT22;62284;50.702;7.140;2022-08-19T05:39:52;19.40;99.90
9006;DHT22;62284;50.702;7.140;2022-08-19T05:42:20;19.50;99.90
9006;DHT22;62284;50.702;7.140;2022-08-19T05:44:48;19.60;99.90
9006;DHT22;62284;50.702;7.140;2022-08-19T05:47:16;19.60;99.90
9006;DHT22;62284;50.702;7.140;2022-08-19T05:49:45;19.60;99.90
9006;DHT22;62284;50.702;7.140;2022-08-19T05:52:15;19.70;99.90
9006;DHT22;62284;50.702;7.140;2022-08-19T05:54:42;19.80;99.90
9006;DHT22;62284;50.702;7.140;2022-08-19T05:57:10;19.80;99.90
9006;DHT22;62284;50.702;7.140;2022-08-19T05:59:37;19.80;99.90
9006;DHT22;62284;50.702;7.140;2022-08-19T06:02:05;19.90;99.90
9006;DHT22;62284;50.702;7.140;2022-08-19T06:04:33;19.90;99.90
9006;DHT22;62284;50.702;7.140;2022-08-19T06:07:00;20.00;99.90
9006;DHT22;62284;50.702;7.140;2022-08-19T06:09:29;20.10;99.90
9006;DHT22;62284;50.702;7.140;2022-08-19T06:11:58;20.10;99.90
9006;DHT22;62284;50.702;7.140;2022-08-19T06:14:28;20.10;99.90
9006;DHT22;62284;50.702;7.140;2022-08-19T06:16:55;20.20;99.90
9006;DHT22;62284;50.702;7.140;2022-08-19T06:19:23;20.20;99.90
9006;DHT22;62284;50.702;7.140;2022-08-19T06:21:52;20.20;99.90
9006;DHT22;62284;50.702;7.140;2022-08-19T06:24:21;20.40;99.90
9006;DHT22;62284;50.702;7.140;2022-08-19T06:26:52;20.40;99.90
9006;DHT22;62284;50.702;7.140;2022-08-19T06:29:21;20.50;99.90
9006;DHT22;62284;50.702;7.140;2022-08-19T06:31:51;20.60;99.90
9006;DHT22;62284;50.702;7.140;2022-08-19T06:34:18;20.60;99.90
9006;DHT22;62284;50.702;7.140;2022-08-19T06:36:47;20.80;99.90
9006;DHT22;62284;50.702;7.140;2022-08-19T06:39:16;20.80;99.90
9006;DHT22;62284;50.702;7.140;2022-08-19T06:41:46;20.90;99.90
9006;DHT22;62284;50.702;7.140;2022-08-19T06:44:15;21.00;99.90
9006;DHT22;62284;50.702;7.140;2022-08-19T06:46:43;21.10;99.90
9006;DHT22;62284;50.702;7.140;2022-08-19T06:49:10;20.90;99.90
9006;DHT22;62284;50.702;7.140;2022-08-19T06:51:40;21.00;99.90
9006;DHT22;62284;50.702;7.140;2022-08-19T06:54:08;21.00;99.90
9006;DHT22;62284;50.702;7.140;2022-08-19T06:56:38;21.10;99.90
9006;DHT22;62284;50.702;7.140;2022-08-19T06:59:06;21.10;99.90
9006;DHT22;62284;50.702;7.140;2022-08-19T07:01:40;21.20;99.90
9006;DHT22;62284;50.702;7.140;2022-08-19T07:04:08;21.30;99.80
9006;DHT22;62284;50.702;7.140;2022-08-19T07:06:36;21.40;99.90
9006;DHT22;62284;50.702;7.140;2022-08-19T07:09:03;21.40;99.80
9006;DHT22;62284;50.702;7.140;2022-08-19T07:11:31;21.40;99.70
9006;DHT22;62284;50.702;7.140;2022-08-19T07:13:58;21.50;99.30
9006;DHT22;62284;50.702;7.140;2022-08-19T07:16:26;21.50;99.20
9006;DHT22;62284;50.702;7.140;2022-08-19T07:18:54;21.60;99.10
9006;DHT22;62284;50.702;7.140;2022-08-19T07:21:24;21.70;99.00
9006;DHT22;62284;50.702;7.140;2022-08-19T07:23:53;21.80;98.80
9006;DHT22;62284;50.702;7.140;2022-08-19T07:26:23;21.70;98.30
9006;DHT22;62284;50.702;7.140;2022-08-19T07:28:50;21.70;98.50
9006;DHT22;62284;50.702;7.140;2022-08-19T07:31:20;21.70;98.70
9006;DHT22;62284;50.702;7.140;2022-08-19T07:33:49;21.80;98.60
9006;DHT22;62284;50.702;7.140;2022-08-19T07:36:20;21.90;98.00
9006;DHT22;62284;50.702;7.140;2022-08-19T07:38:50;21.90;98.40
9006;DHT22;62284;50.702;7.140;2022-08-19T07:41:19;22.10;98.10
9006;DHT22;62284;50.702;7.140;2022-08-19T07:43:47;22.30;97.90
9006;DHT22;62284;50.702;7.140;2022-08-19T07:46:16;22.50;97.40
9006;DHT22;62284;50.702;7.140;2022-08-19T07:48:44;22.60;96.90
9006;DHT22;62284;50.702;7.140;2022-08-19T07:51:13;22.70;96.90
9006;DHT22;62284;50.702;7.140;2022-08-19T07:53:42;22.70;96.70
9006;DHT22;62284;50.702;7.140;2022-08-19T07:56:11;22.70;96.80
9006;DHT22;62284;50.702;7.140;2022-08-19T07:58:40;22.70;96.80
9006;DHT22;62284;50.702;7.140;2022-08-19T08:01:11;22.80;96.70
9006;DHT22;62284;50.702;7.140;2022-08-19T08:03:39;22.80;96.60
9006;DHT22;62284;50.702;7.140;2022-08-19T08:06:24;22.90;96.60
9006;DHT22;62284;50.702;7.140;2022-08-19T08:09:11;23.00;95.90
9006;DHT22;62284;50.702;7.140;2022-08-19T08:11:44;23.10;96.00
9006;DHT22;62284;50.702;7.140;2022-08-19T08:14:15;23.30;95.70
9006;DHT22;62284;50.702;7.140;2022-08-19T08:16:42;23.40;95.10
9006;DHT22;62284;50.702;7.140;2022-08-19T08:19:11;23.60;94.60
9006;DHT22;62284;50.702;7.140;2022-08-19T08:21:40;23.80;94.20
9006;DHT22;62284;50.702;7.140;2022-08-19T08:24:08;24.00;93.80
9006;DHT22;62284;50.702;7.140;2022-08-19T08:26:36;24.10;93.70
9006;DHT22;62284;50.702;7.140;2022-08-19T08:29:03;24.30;93.30
9006;DHT22;62284;50.702;7.140;2022-08-19T08:31:30;24.20;93.30
9006;DHT22;62284;50.702;7.140;2022-08-19T08:33:58;24.20;93.20
9006;DHT22;62284;50.702;7.140;2022-08-19T08:36:24;24.30;93.60
9006;DHT22;62284;50.702;7.140;2022-08-19T08:38:53;24.50;92.90
9006;DHT22;62284;50.702;7.140;2022-08-19T08:41:25;24.80;92.60
9006;DHT22;62284;50.702;7.140;2022-08-19T08:43:57;25.00;91.50
9006;DHT22;62284;50.702;7.140;2022-08-19T08:46:28;25.40;90.20
9006;DHT22;62284;50.702;7.140;2022-08-19T08:49:01;25.50;88.70
9006;DHT22;62284;50.702;7.140;2022-08-19T08:51:35;25.50;88.70
9006;DHT22;62284;50.702;7.140;2022-08-19T08:54:06;25.30;87.30
9006;DHT22;62284;50.702;7.140;2022-08-19T08:56:33;25.20;88.60
9006;DHT22;62284;50.702;7.140;2022-08-19T08:59:04;25.20;88.30
9006;DHT22;62284;50.702;7.140;2022-08-19T09:01:34;25.30;87.50
9006;DHT22;62284;50.702;7.140;2022-08-19T09:04:03;25.30;87.60
9006;DHT22;62284;50.702;7.140;2022-08-19T09:06:38;25.40;88.00
9006;DHT22;62284;50.702;7.140;2022-08-19T09:09:13;25.40;87.30
9006;DHT22;62284;50.702;7.140;2022-08-19T09:11:50;25.60;86.90
9006;DHT22;62284;50.702;7.140;2022-08-19T09:14:36;25.60;86.90
9006;DHT22;62284;50.702;7.140;2022-08-19T09:17:07;25.80;86.40
9006;DHT22;62284;50.702;7.140;2022-08-19T09:19:35;25.90;85.30
9006;DHT22;62284;50.702;7.140;2022-08-19T09:22:02;25.80;84.10
9006;DHT22;62284;50.702;7.140;2022-08-19T09:24:30;26.10;83.70
9006;DHT22;62284;50.702;7.140;2022-08-19T09:26:57;26.20;81.90
9006;DHT22;62284;50.702;7.140;2022-08-19T09:29:25;26.50;81.50
9006;DHT22;62284;50.702;7.140;2022-08-19T09:31:53;26.50;78.70
9006;DHT22;62284;50.702;7.140;2022-08-19T09:34:20;26.30;78.30
9006;DHT22;62284;50.702;7.140;2022-08-19T09:36:47;26.20;80.20
9006;DHT22;62284;50.702;7.140;2022-08-19T09:39:14;26.20;80.70
9006;DHT22;62284;50.702;7.140;2022-08-19T09:41:41;26.70;79.90
9006;DHT22;62284;50.702;7.140;2022-08-19T09:44:08;26.90;77.50
9006;DHT22;62284;50.702;7.140;2022-08-19T09:46:38;27.10;75.20
9006;DHT22;62284;50.702;7.140;2022-08-19T09:49:08;27.40;74.40
9006;DHT22;62284;50.702;7.140;2022-08-19T09:51:34;27.60;71.30
9006;DHT22;62284;50.702;7.140;2022-08-19T09:54:03;27.60;72.20
9006;DHT22;62284;50.702;7.140;2022-08-19T09:56:30;27.80;68.90
9006;DHT22;62284;50.702;7.140;2022-08-19T09:58:58;27.60;69.40
9006;DHT22;62284;50.702;7.140;2022-08-19T10:01:27;27.90;69.80
9006;DHT22;62284;50.702;7.140;2022-08-19T10:03:58;28.10;67.50
9006;DHT22;62284;50.702;7.140;2022-08-19T10:06:27;28.50;66.30
9006;DHT22;62284;50.702;7.140;2022-08-19T10:08:59;28.30;65.10
9006;DHT22;62284;50.702;7.140;2022-08-19T10:11:26;28.40;64.50
9006;DHT22;62284;50.702;7.140;2022-08-19T10:13:54;28.40;64.80
9006;DHT22;62284;50.702;7.140;2022-08-19T10:16:23;28.60;62.10
9006;DHT22;62284;50.702;7.140;2022-08-19T10:18:52;28.30;64.00
9006;DHT22;62284;50.702;7.140;2022-08-19T10:21:23;29.00;63.30
9006;DHT22;62284;50.702;7.140;2022-08-19T10:23:54;29.70;60.10
9006;DHT22;62284;50.702;7.140;2022-08-19T10:26:25;30.10;57.70
9006;DHT22;62284;50.702;7.140;2022-08-19T10:28:53;30.60;56.90
9006;DHT22;62284;50.702;7.140;2022-08-19T10:31:23;31.70;55.10
9006;DHT22;62284;50.702;7.140;2022-08-19T10:33:51;32.60;51.80
9006;DHT22;62284;50.702;7.140;2022-08-19T10:36:23;33.60;49.80
9006;DHT22;62284;50.702;7.140;2022-08-19T10:38:53;33.90;47.70
9006;DHT22;62284;50.702;7.140;2022-08-19T10:41:24;33.10;47.60
9006;DHT22;62284;50.702;7.140;2022-08-19T10:43:53;32.10;48.90
9006;DHT22;62284;50.702;7.140;2022-08-19T10:46:23;32.20;49.50
9006;DHT22;62284;50.702;7.140;2022-08-19T10:48:50;32.80;48.70
9006;DHT22;62284;50.702;7.140;2022-08-19T10:51:17;33.40;47.90
9006;DHT22;62284;50.702;7.140;2022-08-19T10:54:03;34.10;46.70
9006;DHT22;62284;50.702;7.140;2022-08-19T10:56:31;36.20;43.50
9006;DHT22;62284;50.702;7.140;2022-08-19T10:59:17;35.70;41.60
9006;DHT22;62284;50.702;7.140;2022-08-19T11:01:47;35.80;41.90
9006;DHT22;62284;50.702;7.140;2022-08-19T11:04:14;36.80;40.00
9006;DHT22;62284;50.702;7.140;2022-08-19T11:06:43;37.00;38.70
9006;DHT22;62284;50.702;7.140;2022-08-19T11:09:14;35.10;41.10
9006;DHT22;62284;50.702;7.140;2022-08-19T11:11:41;33.20;43.00
9006;DHT22;62284;50.702;7.140;2022-08-19T11:14:09;31.90;45.90
9006;DHT22;62284;50.702;7.140;2022-08-19T11:16:37;32.10;45.50
9006;DHT22;62284;50.702;7.140;2022-08-19T11:19:06;33.10;44.90
9006;DHT22;62284;50.702;7.140;2022-08-19T11:21:35;34.60;42.70
9006;DHT22;62284;50.702;7.140;2022-08-19T11:24:05;34.90;41.50
9006;DHT22;62284;50.702;7.140;2022-08-19T11:26:35;35.00;41.80
9006;DHT22;62284;50.702;7.140;2022-08-19T11:29:03;36.60;40.10
9006;DHT22;62284;50.702;7.140;2022-08-19T11:31:34;36.30;37.50
9006;DHT22;62284;50.702;7.140;2022-08-19T11:34:04;34.70;38.80
9006;DHT22;62284;50.702;7.140;2022-08-19T11:36:32;33.10;41.30
9006;DHT22;62284;50.702;7.140;2022-08-19T11:39:00;34.80;41.30
9006;DHT22;62284;50.702;7.140;2022-08-19T11:41:27;37.20;38.60
9006;DHT22;62284;50.702;7.140;2022-08-19T11:43:55;38.40;35.50
9006;DHT22;62284;50.702;7.140;2022-08-19T11:46:24;39.20;34.40
9006;DHT22;62284;50.702;7.140;2022-08-19T11:48:51;40.50;32.10
9006;DHT22;62284;50.702;7.140;2022-08-19T11:51:22;40.10;32.60
9006;DHT22;62284;50.702;7.140;2022-08-19T11:53:50;40.00;32.40
9006;DHT22;62284;50.702;7.140;2022-08-19T11:56:18;40.80;31.80
9006;DHT22;62284;50.702;7.140;2022-08-19T11:58:45;41.80;29.90
9006;DHT22;62284;50.702;7.140;2022-08-19T12:01:17;42.60;29.20
9006;DHT22;62284;50.702;7.140;2022-08-19T12:03:46;40.80;29.60
9006;DHT22;62284;50.702;7.140;2022-08-19T12:06:16;38.40;31.70
9006;DHT22;62284;50.702;7.140;2022-08-19T12:08:44;37.20;33.00
9006;DHT22;62284;50.702;7.140;2022-08-19T12:11:12;38.40;33.20
9006;DHT22;62284;50.702;7.140;2022-08-19T12:13:40;39.20;32.40
9006;DHT22;62284;50.702;7.140;2022-08-19T12:16:15;39.20;31.90
9006;DHT22;62284;50.702;7.140;2022-08-19T12:18:43;39.10;31.30
9006;DHT22;62284;50.702;7.140;2022-08-19T12:21:12;39.40;31.00
9006;DHT22;62284;50.702;7.140;2022-08-19T12:23:39;40.20;30.00
9006;DHT22;62284;50.702;7.140;2022-08-19T12:26:08;39.90;29.40
9006;DHT22;62284;50.702;7.140;2022-08-19T12:28:35;39.00;31.00
9006;DHT22;62284;50.702;7.140;2022-08-19T12:31:02;38.80;31.10
9006;DHT22;62284;50.702;7.140;2022-08-19T12:33:30;39.70;30.40
9006;DHT22;62284;50.702;7.140;2022-08-19T12:36:01;39.90;30.00
9006;DHT22;62284;50.702;7.140;2022-08-19T12:38:28;39.30;30.10
9006;DHT22;62284;50.702;7.140;2022-08-19T12:40:56;39.60;30.30
9006;DHT22;62284;50.702;7.140;2022-08-19T12:43:23;40.70;29.40
9006;DHT22;62284;50.702;7.140;2022-08-19T12:45:50;41.40;28.50
9006;DHT22;62284;50.702;7.140;2022-08-19T12:48:17;41.70;28.20
9006;DHT22;62284;50.702;7.140;2022-08-19T12:50:45;41.10;28.60
9006;DHT22;62284;50.702;7.140;2022-08-19T12:53:12;40.70;29.70
9006;DHT22;62284;50.702;7.140;2022-08-19T12:55:40;41.50;28.90
9006;DHT22;62284;50.702;7.140;2022-08-19T12:58:08;41.50;28.30
9006;DHT22;62284;50.702;7.140;2022-08-19T13:00:35;41.40;29.10
9006;DHT22;62284;50.702;7.140;2022-08-19T13:03:02;41.50;28.40
9006;DHT22;62284;50.702;7.140;2022-08-19T13:05:31;42.10;28.20
9006;DHT22;62284;50.702;7.140;2022-08-19T13:08:00;41.60;28.30
9006;DHT22;62284;50.702;7.140;2022-08-19T13:10:29;41.50;28.40
9006;DHT22;62284;50.702;7.140;2022-08-19T13:12:57;41.40;28.70
9006;DHT22;62284;50.702;7.140;2022-08-19T13:15:25;42.20;28.40
9006;DHT22;62284;50.702;7.140;2022-08-19T13:17:54;42.10;27.90
9006;DHT22;62284;50.702;7.140;2022-08-19T13:20:22;42.00;28.30
9006;DHT22;62284;50.702;7.140;2022-08-19T13:22:49;42.70;27.80
9006;DHT22;62284;50.702;7.140;2022-08-19T13:25:18;43.10;26.80
9006;DHT22;62284;50.702;7.140;2022-08-19T13:27:46;43.30;27.10
9006;DHT22;62284;50.702;7.140;2022-08-19T13:30:15;42.50;27.20
9006;DHT22;62284;50.702;7.140;2022-08-19T13:32:59;42.90;26.10
9006;DHT22;62284;50.702;7.140;2022-08-19T13:35:41;42.30;26.90
9006;DHT22;62284;50.702;7.140;2022-08-19T13:38:09;43.30;26.40
9006;DHT22;62284;50.702;7.140;2022-08-19T13:40:39;42.60;25.40
9006;DHT22;62284;50.702;7.140;2022-08-19T13:43:06;43.10;26.00
9006;DHT22;62284;50.702;7.140;2022-08-19T13:45:33;43.30;25.70
9006;DHT22;62284;50.702;7.140;2022-08-19T13:48:02;43.30;25.60
9006;DHT22;62284;50.702;7.140;2022-08-19T13:50:33;43.10;25.50
9006;DHT22;62284;50.702;7.140;2022-08-19T13:53:01;43.10;25.90
9006;DHT22;62284;50.702;7.140;2022-08-19T13:55:29;41.90;26.40
9006;DHT22;62284;50.702;7.140;2022-08-19T13:57:59;41.10;27.90
9006;DHT22;62284;50.702;7.140;2022-08-19T14:00:29;39.50;28.50
9006;DHT22;62284;50.702;7.140;2022-08-19T14:02:57;38.20;30.10
9006;DHT22;62284;50.702;7.140;2022-08-19T14:05:25;39.00;29.90
9006;DHT22;62284;50.702;7.140;2022-08-19T14:07:53;40.60;28.70
9006;DHT22;62284;50.702;7.140;2022-08-19T14:10:21;40.60;28.30
9006;DHT22;62284;50.702;7.140;2022-08-19T14:12:49;41.10;27.60
9006;DHT22;62284;50.702;7.140;2022-08-19T14:15:17;41.40;27.30
9006;DHT22;62284;50.702;7.140;2022-08-19T14:17:45;41.90;26.40
9006;DHT22;62284;50.702;7.140;2022-08-19T14:22:43;43.20;25.40
9006;DHT22;62284;50.702;7.140;2022-08-19T14:25:12;43.80;25.20
9006;DHT22;62284;50.702;7.140;2022-08-19T14:27:40;43.90;25.30
9006;DHT22;62284;50.702;7.140;2022-08-19T14:30:09;42.10;25.40
9006;DHT22;62284;50.702;7.140;2022-08-19T14:32:38;41.30;26.70
9006;DHT22;62284;50.702;7.140;2022-08-19T14:35:06;41.60;26.50
9006;DHT22;62284;50.702;7.140;2022-08-19T14:37:33;42.00;26.20
9006;DHT22;62284;50.702;7.140;2022-08-19T14:40:01;42.80;25.30
9006;DHT22;62284;50.702;7.140;2022-08-19T14:42:28;43.30;25.10
9006;DHT22;62284;50.702;7.140;2022-08-19T14:44:57;41.90;25.50
9006;DHT22;62284;50.702;7.140;2022-08-19T14:47:25;40.20;27.40
9006;DHT22;62284;50.702;7.140;2022-08-19T14:49:54;39.10;28.50
9006;DHT22;62284;50.702;7.140;2022-08-19T14:52:20;40.00;28.10
9006;DHT22;62284;50.702;7.140;2022-08-19T14:54:47;41.50;26.70
9006;DHT22;62284;50.702;7.140;2022-08-19T14:57:15;42.30;25.90
9006;DHT22;62284;50.702;7.140;2022-08-19T14:59:42;42.10;26.00
9006;DHT22;62284;50.702;7.140;2022-08-19T15:02:09;42.00;25.50
9006;DHT22;62284;50.702;7.140;2022-08-19T15:04:37;40.20;26.80
9006;DHT22;62284;50.702;7.140;2022-08-19T15:07:05;37.80;29.20
9006;DHT22;62284;50.702;7.140;2022-08-19T15:09:32;38.70;29.20
9006;DHT22;62284;50.702;7.140;2022-08-19T15:12:00;40.70;27.40
9006;DHT22;62284;50.702;7.140;2022-08-19T15:14:28;42.10;25.80
9006;DHT22;62284;50.702;7.140;2022-08-19T15:17:00;41.60;26.10
9006;DHT22;62284;50.702;7.140;2022-08-19T15:19:28;41.80;26.40
9006;DHT22;62284;50.702;7.140;2022-08-19T15:21:55;41.70;25.80
9006;DHT22;62284;50.702;7.140;2022-08-19T15:24:23;40.80;26.60
9006;DHT22;62284;50.702;7.140;2022-08-19T15:26:51;40.90;26.60
9006;DHT22;62284;50.702;7.140;2022-08-19T15:29:18;40.90;26.50
9006;DHT22;62284;50.702;7.140;2022-08-19T15:31:45;41.50;26.00
9006;DHT22;62284;50.702;7.140;2022-08-19T15:34:12;40.40;26.50
9006;DHT22;62284;50.702;7.140;2022-08-19T15:36:39;38.80;28.00
9006;DHT22;62284;50.702;7.140;2022-08-19T15:39:06;38.10;29.00
9006;DHT22;62284;50.702;7.140;2022-08-19T15:41:36;38.50;28.70
9006;DHT22;62284;50.702;7.140;2022-08-19T15:44:06;38.70;28.30
9006;DHT22;62284;50.702;7.140;2022-08-19T15:46:37;38.70;27.90
9006;DHT22;62284;50.702;7.140;2022-08-19T15:49:05;40.00;27.20
9006;DHT22;62284;50.702;7.140;2022-08-19T15:51:33;40.20;26.40
9006;DHT22;62284;50.702;7.140;2022-08-19T15:54:01;40.10;26.60
9006;DHT22;62284;50.702;7.140;2022-08-19T15:56:28;39.60;26.70
9006;DHT22;62284;50.702;7.140;2022-08-19T15:59:10;39.20;27.20